MCP Paphos — 5BRR2 — position and weather

sailwx.info

Track history (hours):
 
Tides and Currents Weather Stations Pressure Air Temp Water Temp Dewpoint Dewpoint Depression Visibility Wind Speed Wind Dir Waves Ship Positions

MCP Paphos

Last reported at 2017-Aug-31 14:48 UTC. Time now 2017-Sep-23 02:24 UTC.
Position N 28°39' W 013°30'.
Warning: this ship's position is 22 days out of date.

Length 117 m; draft 7 m.

Type: Cargo ship. MMSI: 209442000.

Date/timePositionNaut miles runAvg speedWind from/ knotsBaromVisibWave heightAir tempDewpointWater temp
2017-Aug-31 14:48N 28°39' W 013°30'311.3
2017-Aug-31 14:30N 28°42' W 013°28'510.9
2017-Aug-31 14:00N 28°47' W 013°26'510.5
2017-Aug-31 13:30N 28°51' W 013°23'510.4
2017-Aug-31 12:59N 28°56' W 013°20'510.0
2017-Aug-31 12:31N 29°01' W 013°18'  
2017-Aug-29 05:10N 37°47' W 009°36'3 9.1
2017-Aug-29 04:52N 37°50' W 009°35'4 9.3
2017-Aug-29 04:28N 37°54' W 009°35'5 9.9
2017-Aug-29 04:01N 37°58' W 009°34'510.1
2017-Aug-29 03:31N 38°03' W 009°33'510.3
2017-Aug-29 03:00N 38°09' W 009°32'5 9.9
2017-Aug-29 02:30N 38°13' W 009°31'510.0
2017-Aug-29 02:00N 38°18' W 009°29'510.0
2017-Aug-29 01:30N 38°23' W 009°27'5 9.9
2017-Aug-29 01:00N 38°28' W 009°26'5 9.7
2017-Aug-29 00:30N 38°33' W 009°25'5 9.7
2017-Aug-29 00:01N 38°37' W 009°22'510.9
2017-Aug-28 23:30N 38°41' W 009°18'611.5
2017-Aug-28 22:59N 38°42' W 009°10'4 0.5
2017-Aug-28 15:23N 38°44' W 009°06'0 0.1
2017-Aug-28 08:43N 38°44' W 009°06'0 0.0
2017-Aug-28 08:28N 38°44' W 009°06'0 0.0
2017-Aug-28 07:55N 38°44' W 009°06'0 0.0
2017-Aug-28 07:28N 38°44' W 009°06'0 0.0
2017-Aug-28 05:55N 38°44' W 009°06'1 3.4
2017-Aug-28 05:30N 38°43' W 009°07'5 9.9
2017-Aug-28 04:59N 38°41' W 009°13'4 7.5
2017-Aug-28 04:28N 38°41' W 009°18'4 9.2
2017-Aug-28 04:00N 38°38' W 009°22'3 5.2
2017-Aug-28 03:30N 38°40' W 009°24'0 0.2
2017-Aug-28 02:59N 38°40' W 009°24'0 0.0
2017-Aug-28 02:29N 38°40' W 009°24'0 0.0
2017-Aug-28 01:59N 38°40' W 009°24'0 0.0
2017-Aug-28 01:29N 38°40' W 009°24'0 0.0
2017-Aug-28 00:53N 38°40' W 009°24'0 0.0
2017-Aug-28 00:17N 38°40' W 009°24'0 0.0
2017-Aug-27 23:59N 38°40' W 009°24'0 0.0
2017-Aug-27 23:29N 38°40' W 009°24'0 0.0
2017-Aug-27 22:59N 38°40' W 009°24'0 0.0
2017-Aug-27 22:29N 38°40' W 009°24'0 0.0
2017-Aug-27 21:59N 38°40' W 009°24'0 0.0
2017-Aug-27 21:29N 38°40' W 009°24'0 0.0
2017-Aug-27 20:59N 38°40' W 009°24'0 0.0
2017-Aug-27 20:29N 38°40' W 009°24'0 0.1
2017-Aug-27 19:59N 38°40' W 009°24'0 0.0
2017-Aug-27 19:23N 38°40' W 009°24'0 0.0
2017-Aug-27 18:53N 38°40' W 009°24'0 0.1
2017-Aug-27 18:26N 38°40' W 009°24'0 1.0
2017-Aug-27 18:00N 38°39' W 009°24'3 7.0
2017-Aug-27 17:30N 38°36' W 009°24'2 3.6
2017-Aug-27 16:58N 38°34' W 009°24'0 0.5
2017-Aug-27 16:28N 38°34' W 009°25'0 0.5
2017-Aug-27 15:58N 38°33' W 009°25'0 0.6
2017-Aug-27 15:28N 38°33' W 009°25'0 0.6
2017-Aug-27 14:58N 38°33' W 009°25'0 0.7
2017-Aug-27 14:28N 38°33' W 009°26'0 0.6
2017-Aug-27 13:58N 38°33' W 009°26'0 0.7
2017-Aug-27 13:28N 38°33' W 009°27'0 0.7
2017-Aug-27 12:58N 38°32' W 009°27'0 0.8
2017-Aug-27 12:28N 38°32' W 009°27'0 0.7
2017-Aug-27 11:58N 38°32' W 009°28'0 0.7
2017-Aug-27 11:30N 38°32' W 009°28'0 0.7
2017-Aug-27 11:00N 38°32' W 009°29'0 0.6
2017-Aug-27 10:31N 38°32' W 009°29'0 0.5
2017-Aug-27 10:01N 38°32' W 009°29'0 0.5
2017-Aug-27 09:30N 38°32' W 009°30'1 2.3
2017-Aug-27 09:00N 38°31' W 009°29'4 7.7
2017-Aug-27 08:31N 38°29' W 009°25'5 9.1
2017-Aug-27 08:00N 38°25' W 009°26'5 9.3
2017-Aug-27 07:30N 38°20' W 009°27'5 9.2
2017-Aug-27 07:00N 38°16' W 009°28'4 9.0
2017-Aug-27 06:31N 38°11' W 009°29'5 9.1
2017-Aug-27 06:01N 38°07' W 009°30'5 9.0
2017-Aug-27 05:30N 38°02' W 009°31'4 9.0
2017-Aug-27 05:01N 37°58' W 009°31'5 9.1
2017-Aug-27 04:27N 37°53' W 009°33'4 9.3
2017-Aug-27 04:01N 37°49' W 009°34'9 9.4
2017-Aug-27 03:05N 37°40' W 009°35'47 9.4
2017-Aug-26 22:01N 36°54' W 009°45'3 9.5
2017-Aug-26 21:39N 36°50' W 009°45'1 9.5
2017-Aug-26 21:30N 36°49' W 009°45'5 9.5
2017-Aug-26 20:58N 36°44' W 009°45'4 9.1
2017-Aug-26 20:30N 36°40' W 009°44'7 9.0
2017-Aug-26 19:41N 36°32' W 009°43'2 9.4
2017-Aug-26 19:27N 36°30' W 009°43'4 9.3
2017-Aug-26 19:00N 36°26' W 009°42'5 9.2
2017-Aug-26 18:30N 36°21' W 009°42'4 9.0
2017-Aug-26 18:00N 36°17' W 009°42'4 8.9
2017-Aug-26 17:30N 36°12' W 009°41'5 9.2
2017-Aug-26 17:00N 36°08' W 009°41'5 9.1
2017-Aug-26 16:30N 36°03' W 009°41'5 9.0
2017-Aug-26 16:00N 35°59' W 009°41'5 9.3
2017-Aug-26 15:30N 35°54' W 009°41'5 9.4
2017-Aug-26 15:00N 35°49' W 009°40'9 9.1
2017-Aug-26 14:00N 35°40' W 009°40'4 9.0
2017-Aug-26 13:30N 35°36' W 009°39'5 9.2
2017-Aug-26 13:00N 35°31' W 009°39'5 9.0
2017-Aug-26 12:30N 35°27' W 009°39'4 9.0
2017-Aug-26 12:00N 35°22' W 009°39'5 9.0
2017-Aug-26 11:30N 35°18' W 009°38'4 8.9
2017-Aug-26 11:00N 35°13' W 009°38'5 9.2
2017-Aug-26 10:29N 35°09' W 009°37'5 9.4
2017-Aug-26 10:00N 35°04' W 009°37'6 9.1
2017-Aug-26 09:20N 34°58' W 009°36'3 8.8
2017-Aug-26 08:58N 34°55' W 009°36'10 8.9
2017-Aug-26 07:54N 34°45' W 009°35'4 9.4
2017-Aug-26 07:30N 34°42' W 009°35'23 9.3
2017-Aug-26 05:00N 34°18' W 009°33'4 9.0
2017-Aug-26 04:30N 34°14' W 009°33'4 8.8
2017-Aug-26 04:00N 34°09' W 009°33'6 9.0
2017-Aug-26 03:21N 34°04' W 009°32'3 9.0
2017-Aug-26 03:01N 34°00' W 009°32'4 8.9
2017-Aug-26 02:30N 33°56' W 009°31'5 8.9
2017-Aug-26 02:00N 33°51' W 009°31'4 8.9
2017-Aug-26 01:31N 33°47' W 009°31'5 9.0
2017-Aug-26 00:58N 33°42' W 009°31'4 9.0
2017-Aug-26 00:30N 33°38' W 009°31'4 8.9
2017-Aug-26 00:00N 33°34' W 009°31'5 8.9
2017-Aug-25 23:30N 33°29' W 009°30'4 9.0
2017-Aug-25 23:00N 33°25' W 009°30'4 8.9
2017-Aug-25 22:31N 33°20' W 009°30'4 8.8
2017-Aug-25 22:00N 33°16' W 009°29'4 8.7
2017-Aug-25 21:31N 33°12' W 009°29'4 8.6
2017-Aug-25 21:01N 33°07' W 009°29'4 8.4
2017-Aug-25 20:30N 33°03' W 009°28'4 8.6
2017-Aug-25 20:00N 32°59' W 009°28'4 8.4
2017-Aug-25 19:28N 32°54' W 009°28'9 8.5
2017-Aug-25 18:23N 32°45' W 009°27'3 8.4
2017-Aug-25 18:00N 32°42' W 009°26'4 8.3
2017-Aug-25 17:31N 32°38' W 009°26'4 8.1
2017-Aug-25 17:01N 32°34' W 009°26'4 7.9
2017-Aug-25 16:30N 32°30' W 009°25'4 7.9
2017-Aug-25 15:57N 32°25' W 009°25'11 0.2
2017-Aug-23 19:13N 32°18' W 009°15'0 0.0
2017-Aug-23 18:16N 32°18' W 009°15'25 1.5
2017-Aug-23 02:18N 32°05' W 009°39'511.6
2017-Aug-23 01:54N 32°02' W 009°44'511.4
2017-Aug-23 01:30N 31°60' W 009°48'711.3
2017-Aug-23 00:51N 31°56' W 009°55'411.2
2017-Aug-23 00:29N 31°53' W 009°59'711.1
2017-Aug-22 23:52N 31°50' W 010°06'2011.0
2017-Aug-22 22:06N 31°38' W 010°25'110.6
2017-Aug-22 22:00N 31°38' W 010°26'1110.6
2017-Aug-22 20:58N 31°32' W 010°36'610.4
2017-Aug-22 20:23N 31°28' W 010°42'410.3
2017-Aug-22 20:00N 31°26' W 010°46'710.2
2017-Aug-22 19:20N 31°23' W 010°53'3 9.9
2017-Aug-22 18:59N 31°21' W 010°56'6 9.9
2017-Aug-22 18:21N 31°17' W 011°02'1110.7
2017-Aug-22 17:18N 31°11' W 011°13'511.4
2017-Aug-22 16:54N 31°08' W 011°18'511.5
2017-Aug-22 16:30N 31°06' W 011°22'611.4
2017-Aug-22 16:00N 31°02' W 011°27'611.5
2017-Aug-22 15:30N 30°59' W 011°33'611.7
2017-Aug-22 15:00N 30°56' W 011°39'612.1
2017-Aug-22 14:30N 30°52' W 011°44'612.1
2017-Aug-22 14:00N 30°49' W 011°50'612.2
2017-Aug-22 13:30N 30°45' W 011°56'612.0
2017-Aug-22 13:00N 30°42' W 012°02'612.0
2017-Aug-22 12:30N 30°39' W 012°08'612.2
2017-Aug-22 12:00N 30°35' W 012°14'612.0
2017-Aug-22 11:30N 30°32' W 012°20'611.6
2017-Aug-22 11:00N 30°29' W 012°25'611.5
2017-Aug-22 10:27N 30°25' W 012°31'511.6
2017-Aug-22 10:00N 30°23' W 012°36'611.7
2017-Aug-22 09:29N 30°19' W 012°42'611.8
2017-Aug-22 09:00N 30°16' W 012°48'611.6
2017-Aug-22 08:30N 30°13' W 012°54'611.3
2017-Aug-22 08:00N 30°10' W 012°59'611.4
2017-Aug-22 07:30N 30°07' W 013°04'611.5
2017-Aug-22 07:00N 30°03' W 013°10'611.5
2017-Aug-22 06:30N 30°00' W 013°15'611.3
2017-Aug-22 06:00N 29°57' W 013°21'611.4
2017-Aug-22 05:30N 29°54' W 013°26'611.5
2017-Aug-22 04:59N 29°50' W 013°32'511.4
2017-Aug-22 04:30N 29°47' W 013°37'611.3
2017-Aug-22 03:59N 29°44' W 013°42'511.2
2017-Aug-22 03:30N 29°41' W 013°48'611.2
2017-Aug-22 02:59N 29°37' W 013°53'611.5
2017-Aug-22 02:30N 29°33' W 013°57'711.6
2017-Aug-22 01:56N 29°28' W 014°02'711.6
2017-Aug-22 01:22N 29°23' W 014°07'411.8
2017-Aug-22 01:00N 29°20' W 014°10'611.7
2017-Aug-22 00:30N 29°16' W 014°15'611.9
2017-Aug-22 00:00N 29°11' W 014°19'611.8
2017-Aug-21 23:28N 29°06' W 014°24'611.9
2017-Aug-21 23:00N 29°02' W 014°28'611.9
2017-Aug-21 22:30N 28°58' W 014°32'611.8
2017-Aug-21 22:00N 28°53' W 014°36'611.5
2017-Aug-21 21:30N 28°49' W 014°41'611.7
2017-Aug-21 21:00N 28°44' W 014°46'611.6
2017-Aug-21 20:30N 28°40' W 014°50'611.7
2017-Aug-21 20:00N 28°36' W 014°55'611.5
2017-Aug-21 19:30N 28°31' W 014°59'611.6
2017-Aug-21 19:00N 28°27' W 015°03'611.5
2017-Aug-21 18:30N 28°23' W 015°08'611.4
2017-Aug-21 18:00N 28°19' W 015°12'611.4
2017-Aug-21 17:30N 28°14' W 015°16'611.7
2017-Aug-21 17:00N 28°10' W 015°21'5 9.5
2017-Aug-21 16:30N 28°07' W 015°25'1 1.7
2017-Aug-21 15:58N 28°08' W 015°25'0 0.0
2017-Aug-21 15:28N 28°08' W 015°25'0 0.0
2017-Aug-21 14:58N 28°08' W 015°25'  
Track history (hours):
 
Tides and Currents Weather Stations Pressure Air Temp Water Temp Dewpoint Dewpoint Depression Visibility Wind Speed Wind Dir Waves Ship Positions

MCP Paphos

Last reported at 2017-Aug-31 14:48 UTC. Time now 2017-Sep-23 02:24 UTC.
Position N 28°39' W 013°30'.
Warning: this ship's position is 22 days out of date.

Length 117 m; draft 7 m.

Type: Cargo ship. MMSI: 209442000.

Date/timePositionNaut miles runAvg speedWind from/ knotsBaromVisibWave heightAir tempDewpointWater temp
2017-Aug-31 14:48N 28°39' W 013°30'311.3
2017-Aug-31 14:30N 28°42' W 013°28'510.9
2017-Aug-31 14:00N 28°47' W 013°26'510.5
2017-Aug-31 13:30N 28°51' W 013°23'510.4
2017-Aug-31 12:59N 28°56' W 013°20'510.0
2017-Aug-31 12:31N 29°01' W 013°18'  
2017-Aug-29 05:10N 37°47' W 009°36'3 9.1
2017-Aug-29 04:52N 37°50' W 009°35'4 9.3
2017-Aug-29 04:28N 37°54' W 009°35'5 9.9
2017-Aug-29 04:01N 37°58' W 009°34'510.1
2017-Aug-29 03:31N 38°03' W 009°33'510.3
2017-Aug-29 03:00N 38°09' W 009°32'5 9.9
2017-Aug-29 02:30N 38°13' W 009°31'510.0
2017-Aug-29 02:00N 38°18' W 009°29'510.0
2017-Aug-29 01:30N 38°23' W 009°27'5 9.9
2017-Aug-29 01:00N 38°28' W 009°26'5 9.7
2017-Aug-29 00:30N 38°33' W 009°25'5 9.7
2017-Aug-29 00:01N 38°37' W 009°22'510.9
2017-Aug-28 23:30N 38°41' W 009°18'611.5
2017-Aug-28 22:59N 38°42' W 009°10'4 0.5
2017-Aug-28 15:23N 38°44' W 009°06'0 0.1
2017-Aug-28 08:43N 38°44' W 009°06'0 0.0
2017-Aug-28 08:28N 38°44' W 009°06'0 0.0
2017-Aug-28 07:55N 38°44' W 009°06'0 0.0
2017-Aug-28 07:28N 38°44' W 009°06'0 0.0
2017-Aug-28 05:55N 38°44' W 009°06'1 3.4
2017-Aug-28 05:30N 38°43' W 009°07'5 9.9
2017-Aug-28 04:59N 38°41' W 009°13'4 7.5
2017-Aug-28 04:28N 38°41' W 009°18'4 9.2
2017-Aug-28 04:00N 38°38' W 009°22'3 5.2
2017-Aug-28 03:30N 38°40' W 009°24'0 0.2
2017-Aug-28 02:59N 38°40' W 009°24'0 0.0
2017-Aug-28 02:29N 38°40' W 009°24'0 0.0
2017-Aug-28 01:59N 38°40' W 009°24'0 0.0
2017-Aug-28 01:29N 38°40' W 009°24'0 0.0
2017-Aug-28 00:53N 38°40' W 009°24'0 0.0
2017-Aug-28 00:17N 38°40' W 009°24'0 0.0
2017-Aug-27 23:59N 38°40' W 009°24'0 0.0
2017-Aug-27 23:29N 38°40' W 009°24'0 0.0
2017-Aug-27 22:59N 38°40' W 009°24'0 0.0
2017-Aug-27 22:29N 38°40' W 009°24'0 0.0
2017-Aug-27 21:59N 38°40' W 009°24'0 0.0
2017-Aug-27 21:29N 38°40' W 009°24'0 0.0
2017-Aug-27 20:59N 38°40' W 009°24'0 0.0
2017-Aug-27 20:29N 38°40' W 009°24'0 0.1
2017-Aug-27 19:59N 38°40' W 009°24'0 0.0
2017-Aug-27 19:23N 38°40' W 009°24'0 0.0
2017-Aug-27 18:53N 38°40' W 009°24'0 0.1
2017-Aug-27 18:26N 38°40' W 009°24'0 1.0
2017-Aug-27 18:00N 38°39' W 009°24'3 7.0
2017-Aug-27 17:30N 38°36' W 009°24'2 3.6
2017-Aug-27 16:58N 38°34' W 009°24'0 0.5
2017-Aug-27 16:28N 38°34' W 009°25'0 0.5
2017-Aug-27 15:58N 38°33' W 009°25'0 0.6
2017-Aug-27 15:28N 38°33' W 009°25'0 0.6
2017-Aug-27 14:58N 38°33' W 009°25'0 0.7
2017-Aug-27 14:28N 38°33' W 009°26'0 0.6
2017-Aug-27 13:58N 38°33' W 009°26'0 0.7
2017-Aug-27 13:28N 38°33' W 009°27'0 0.7
2017-Aug-27 12:58N 38°32' W 009°27'0 0.8
2017-Aug-27 12:28N 38°32' W 009°27'0 0.7
2017-Aug-27 11:58N 38°32' W 009°28'0 0.7
2017-Aug-27 11:30N 38°32' W 009°28'0 0.7
2017-Aug-27 11:00N 38°32' W 009°29'0 0.6
2017-Aug-27 10:31N 38°32' W 009°29'0 0.5
2017-Aug-27 10:01N 38°32' W 009°29'0 0.5
2017-Aug-27 09:30N 38°32' W 009°30'1 2.3
2017-Aug-27 09:00N 38°31' W 009°29'4 7.7
2017-Aug-27 08:31N 38°29' W 009°25'5 9.1
2017-Aug-27 08:00N 38°25' W 009°26'5 9.3
2017-Aug-27 07:30N 38°20' W 009°27'5 9.2
2017-Aug-27 07:00N 38°16' W 009°28'4 9.0
2017-Aug-27 06:31N 38°11' W 009°29'5 9.1
2017-Aug-27 06:01N 38°07' W 009°30'5 9.0
2017-Aug-27 05:30N 38°02' W 009°31'4 9.0
2017-Aug-27 05:01N 37°58' W 009°31'5 9.1
2017-Aug-27 04:27N 37°53' W 009°33'4 9.3
2017-Aug-27 04:01N 37°49' W 009°34'9 9.4
2017-Aug-27 03:05N 37°40' W 009°35'47 9.4
2017-Aug-26 22:01N 36°54' W 009°45'3 9.5
2017-Aug-26 21:39N 36°50' W 009°45'1 9.5
2017-Aug-26 21:30N 36°49' W 009°45'5 9.5
2017-Aug-26 20:58N 36°44' W 009°45'4 9.1
2017-Aug-26 20:30N 36°40' W 009°44'7 9.0
2017-Aug-26 19:41N 36°32' W 009°43'2 9.4
2017-Aug-26 19:27N 36°30' W 009°43'4 9.3
2017-Aug-26 19:00N 36°26' W 009°42'5 9.2
2017-Aug-26 18:30N 36°21' W 009°42'4 9.0
2017-Aug-26 18:00N 36°17' W 009°42'4 8.9
2017-Aug-26 17:30N 36°12' W 009°41'5 9.2
2017-Aug-26 17:00N 36°08' W 009°41'5 9.1
2017-Aug-26 16:30N 36°03' W 009°41'5 9.0
2017-Aug-26 16:00N 35°59' W 009°41'5 9.3
2017-Aug-26 15:30N 35°54' W 009°41'5 9.4
2017-Aug-26 15:00N 35°49' W 009°40'9 9.1
2017-Aug-26 14:00N 35°40' W 009°40'4 9.0
2017-Aug-26 13:30N 35°36' W 009°39'5 9.2
2017-Aug-26 13:00N 35°31' W 009°39'5 9.0
2017-Aug-26 12:30N 35°27' W 009°39'4 9.0
2017-Aug-26 12:00N 35°22' W 009°39'5 9.0
2017-Aug-26 11:30N 35°18' W 009°38'4 8.9
2017-Aug-26 11:00N 35°13' W 009°38'5 9.2
2017-Aug-26 10:29N 35°09' W 009°37'5 9.4
2017-Aug-26 10:00N 35°04' W 009°37'6 9.1
2017-Aug-26 09:20N 34°58' W 009°36'3 8.8
2017-Aug-26 08:58N 34°55' W 009°36'10 8.9
2017-Aug-26 07:54N 34°45' W 009°35'4 9.4
2017-Aug-26 07:30N 34°42' W 009°35'23 9.3
2017-Aug-26 05:00N 34°18' W 009°33'4 9.0
2017-Aug-26 04:30N 34°14' W 009°33'4 8.8
2017-Aug-26 04:00N 34°09' W 009°33'6 9.0
2017-Aug-26 03:21N 34°04' W 009°32'3 9.0
2017-Aug-26 03:01N 34°00' W 009°32'4 8.9
2017-Aug-26 02:30N 33°56' W 009°31'5 8.9
2017-Aug-26 02:00N 33°51' W 009°31'4 8.9
2017-Aug-26 01:31N 33°47' W 009°31'5 9.0
2017-Aug-26 00:58N 33°42' W 009°31'4 9.0
2017-Aug-26 00:30N 33°38' W 009°31'4 8.9
2017-Aug-26 00:00N 33°34' W 009°31'5 8.9
2017-Aug-25 23:30N 33°29' W 009°30'4 9.0
2017-Aug-25 23:00N 33°25' W 009°30'4 8.9
2017-Aug-25 22:31N 33°20' W 009°30'4 8.8
2017-Aug-25 22:00N 33°16' W 009°29'4 8.7
2017-Aug-25 21:31N 33°12' W 009°29'4 8.6
2017-Aug-25 21:01N 33°07' W 009°29'4 8.4
2017-Aug-25 20:30N 33°03' W 009°28'4 8.6
2017-Aug-25 20:00N 32°59' W 009°28'4 8.4
2017-Aug-25 19:28N 32°54' W 009°28'9 8.5
2017-Aug-25 18:23N 32°45' W 009°27'3 8.4
2017-Aug-25 18:00N 32°42' W 009°26'4 8.3
2017-Aug-25 17:31N 32°38' W 009°26'4 8.1
2017-Aug-25 17:01N 32°34' W 009°26'4 7.9
2017-Aug-25 16:30N 32°30' W 009°25'4 7.9
2017-Aug-25 15:57N 32°25' W 009°25'11 0.2
2017-Aug-23 19:13N 32°18' W 009°15'0 0.0
2017-Aug-23 18:16N 32°18' W 009°15'25 1.5
2017-Aug-23 02:18N 32°05' W 009°39'511.6
2017-Aug-23 01:54N 32°02' W 009°44'511.4
2017-Aug-23 01:30N 31°60' W 009°48'711.3
2017-Aug-23 00:51N 31°56' W 009°55'411.2
2017-Aug-23 00:29N 31°53' W 009°59'711.1
2017-Aug-22 23:52N 31°50' W 010°06'2011.0
2017-Aug-22 22:06N 31°38' W 010°25'110.6
2017-Aug-22 22:00N 31°38' W 010°26'1110.6
2017-Aug-22 20:58N 31°32' W 010°36'610.4
2017-Aug-22 20:23N 31°28' W 010°42'410.3
2017-Aug-22 20:00N 31°26' W 010°46'710.2
2017-Aug-22 19:20N 31°23' W 010°53'3 9.9
2017-Aug-22 18:59N 31°21' W 010°56'6 9.9
2017-Aug-22 18:21N 31°17' W 011°02'1110.7
2017-Aug-22 17:18N 31°11' W 011°13'511.4
2017-Aug-22 16:54N 31°08' W 011°18'511.5
2017-Aug-22 16:30N 31°06' W 011°22'611.4
2017-Aug-22 16:00N 31°02' W 011°27'611.5
2017-Aug-22 15:30N 30°59' W 011°33'611.7
2017-Aug-22 15:00N 30°56' W 011°39'612.1
2017-Aug-22 14:30N 30°52' W 011°44'612.1
2017-Aug-22 14:00N 30°49' W 011°50'612.2
2017-Aug-22 13:30N 30°45' W 011°56'612.0
2017-Aug-22 13:00N 30°42' W 012°02'612.0
2017-Aug-22 12:30N 30°39' W 012°08'612.2
2017-Aug-22 12:00N 30°35' W 012°14'612.0
2017-Aug-22 11:30N 30°32' W 012°20'611.6
2017-Aug-22 11:00N 30°29' W 012°25'611.5
2017-Aug-22 10:27N 30°25' W 012°31'511.6
2017-Aug-22 10:00N 30°23' W 012°36'611.7
2017-Aug-22 09:29N 30°19' W 012°42'611.8
2017-Aug-22 09:00N 30°16' W 012°48'611.6
2017-Aug-22 08:30N 30°13' W 012°54'611.3
2017-Aug-22 08:00N 30°10' W 012°59'611.4
2017-Aug-22 07:30N 30°07' W 013°04'611.5
2017-Aug-22 07:00N 30°03' W 013°10'611.5
2017-Aug-22 06:30N 30°00' W 013°15'611.3
2017-Aug-22 06:00N 29°57' W 013°21'611.4
2017-Aug-22 05:30N 29°54' W 013°26'611.5
2017-Aug-22 04:59N 29°50' W 013°32'511.4
2017-Aug-22 04:30N 29°47' W 013°37'611.3
2017-Aug-22 03:59N 29°44' W 013°42'511.2
2017-Aug-22 03:30N 29°41' W 013°48'611.2
2017-Aug-22 02:59N 29°37' W 013°53'611.5
2017-Aug-22 02:30N 29°33' W 013°57'711.6
2017-Aug-22 01:56N 29°28' W 014°02'711.6
2017-Aug-22 01:22N 29°23' W 014°07'411.8
2017-Aug-22 01:00N 29°20' W 014°10'611.7
2017-Aug-22 00:30N 29°16' W 014°15'611.9
2017-Aug-22 00:00N 29°11' W 014°19'611.8
2017-Aug-21 23:28N 29°06' W 014°24'611.9
2017-Aug-21 23:00N 29°02' W 014°28'611.9
2017-Aug-21 22:30N 28°58' W 014°32'611.8
2017-Aug-21 22:00N 28°53' W 014°36'611.5
2017-Aug-21 21:30N 28°49' W 014°41'611.7
2017-Aug-21 21:00N 28°44' W 014°46'611.6
2017-Aug-21 20:30N 28°40' W 014°50'611.7
2017-Aug-21 20:00N 28°36' W 014°55'611.5
2017-Aug-21 19:30N 28°31' W 014°59'611.6
2017-Aug-21 19:00N 28°27' W 015°03'611.5
2017-Aug-21 18:30N 28°23' W 015°08'611.4
2017-Aug-21 18:00N 28°19' W 015°12'611.4
2017-Aug-21 17:30N 28°14' W 015°16'611.7
2017-Aug-21 17:00N 28°10' W 015°21'5 9.5
2017-Aug-21 16:30N 28°07' W 015°25'1 1.7
2017-Aug-21 15:58N 28°08' W 015°25'0 0.0
2017-Aug-21 15:28N 28°08' W 015°25'0 0.0
2017-Aug-21 14:58N 28°08' W 015°25'  

Dump ship's entire track history